createdAt,value
2023-01-07T00:01:04.452Z,6.32
2023-01-07T00:06:02.463Z,5.30
2023-01-07T00:08:34.070Z,5.70
2023-01-07T00:11:02.434Z,5.68
2023-01-07T00:13:30.407Z,4.93
2023-01-07T00:15:59.304Z,4.57
2023-01-07T00:18:27.544Z,5.13
2023-01-07T00:20:57.047Z,5.38
2023-01-07T00:23:26.089Z,4.65
2023-01-07T00:26:01.456Z,6.30
2023-01-07T00:28:29.560Z,5.28
2023-01-07T00:31:00.258Z,4.70
2023-01-07T00:33:28.108Z,6.28
2023-01-07T00:36:00.183Z,5.65
2023-01-07T00:38:29.255Z,5.60
2023-01-07T00:40:57.552Z,4.53
2023-01-07T00:43:25.128Z,4.65
2023-01-07T00:45:53.372Z,4.65
2023-01-07T00:48:21.361Z,4.45
2023-01-07T00:50:50.500Z,6.70
2023-01-07T00:53:18.866Z,5.03
2023-01-07T00:55:50.447Z,5.72
2023-01-07T00:58:21.351Z,5.88
2023-01-07T01:00:49.845Z,4.97
2023-01-07T01:03:17.511Z,5.45
2023-01-07T01:05:45.555Z,4.90
2023-01-07T01:08:13.290Z,4.20
2023-01-07T01:10:41.345Z,5.47
2023-01-07T01:13:13.693Z,6.68
2023-01-07T01:15:43.304Z,5.05
2023-01-07T01:18:11.237Z,5.00
2023-01-07T01:20:39.392Z,4.30
2023-01-07T01:23:07.438Z,4.93
2023-01-07T01:25:35.472Z,5.63
2023-01-07T01:28:03.837Z,5.90
2023-01-07T01:30:33.412Z,5.80
2023-01-07T01:33:01.007Z,5.40
2023-01-07T01:35:29.141Z,5.13
2023-01-07T01:37:56.707Z,7.00
2023-01-07T01:40:29.112Z,5.18
2023-01-07T01:42:59.382Z,5.50
2023-01-07T01:45:27.907Z,4.68
2023-01-07T01:47:59.632Z,5.30
2023-01-07T01:50:30.785Z,4.60
2023-01-07T01:53:02.047Z,4.70
2023-01-07T01:55:35.180Z,5.05
2023-01-07T02:00:33.422Z,5.03
2023-01-07T02:03:06.916Z,4.32
2023-01-07T02:05:40.430Z,4.80
2023-01-07T02:08:11.752Z,4.63
2023-01-07T02:10:40.224Z,4.63
2023-01-07T02:13:28.843Z,4.47
2023-01-07T02:16:02.068Z,5.30
2023-01-07T02:18:51.508Z,4.38
2023-01-07T02:21:30.195Z,4.53
2023-01-07T02:24:38.261Z,4.97
2023-01-07T02:27:33.692Z,5.55
2023-01-07T02:30:33.257Z,6.07
2023-01-07T02:33:37.469Z,5.95
2023-01-07T02:36:17.510Z,5.85
2023-01-07T02:38:59.341Z,6.43
2023-01-07T02:41:38.060Z,5.03
2023-01-07T02:44:12.306Z,4.93
2023-01-07T02:46:46.863Z,5.78
2023-01-07T02:49:18.170Z,7.55
2023-01-07T02:51:46.920Z,6.68
2023-01-07T02:54:20.134Z,6.10
2023-01-07T02:57:15.395Z,5.93
2023-01-07T03:00:05.624Z,8.38
2023-01-07T03:02:52.457Z,6.72
2023-01-07T03:05:37.733Z,6.78
2023-01-07T03:08:18.041Z,6.43
2023-01-07T03:10:52.765Z,6.57
2023-01-07T03:13:27.023Z,6.28
2023-01-07T03:16:01.891Z,6.05
2023-01-07T03:18:32.217Z,6.88
2023-01-07T03:21:05.862Z,5.22
2023-01-07T03:23:36.087Z,5.85
2023-01-07T03:26:06.873Z,6.38
2023-01-07T03:28:37.625Z,8.00
2023-01-07T03:31:08.284Z,6.03
2023-01-07T03:33:42.582Z,5.65
2023-01-07T03:36:15.892Z,7.15
2023-01-07T03:38:46.434Z,5.80
2023-01-07T03:41:14.440Z,5.90
2023-01-07T03:43:41.993Z,8.05
2023-01-07T03:46:10.023Z,6.53
2023-01-07T03:48:37.652Z,5.70
2023-01-07T03:51:05.726Z,7.57
2023-01-07T03:53:34.841Z,5.63
2023-01-07T03:56:03.183Z,6.53
2023-01-07T03:58:30.935Z,5.57
2023-01-07T04:00:59.329Z,7.70
2023-01-07T04:03:26.979Z,8.32
2023-01-07T04:05:55.059Z,6.60
2023-01-07T04:08:22.678Z,6.97
2023-01-07T04:10:52.045Z,6.82
2023-01-07T04:13:20.105Z,6.45
2023-01-07T04:15:48.068Z,5.70
2023-01-07T04:18:15.622Z,6.15
2023-01-07T04:20:46.095Z,5.22
2023-01-07T04:23:13.644Z,5.55
2023-01-07T04:25:46.093Z,5.88
2023-01-07T04:28:15.126Z,5.40
2023-01-07T04:30:43.236Z,5.45
2023-01-07T04:33:10.961Z,5.32
2023-01-07T04:35:39.933Z,5.55
2023-01-07T04:38:07.528Z,6.63
2023-01-07T04:40:35.429Z,6.78
2023-01-07T04:43:03.535Z,7.15
2023-01-07T04:45:33.246Z,6.47
2023-01-07T04:48:00.900Z,6.20
2023-01-07T04:50:28.935Z,7.55
2023-01-07T04:52:56.675Z,8.43
2023-01-07T04:55:24.646Z,7.45
2023-01-07T04:57:52.299Z,9.65
2023-01-07T05:00:20.529Z,10.05
2023-01-07T05:02:50.359Z,9.25
2023-01-07T05:05:20.758Z,12.48
2023-01-07T05:07:48.547Z,11.13
2023-01-07T05:10:16.437Z,11.48
2023-01-07T05:12:44.036Z,12.55
2023-01-07T05:15:12.882Z,11.60
2023-01-07T05:17:40.654Z,13.38
2023-01-07T05:20:11.985Z,11.07
2023-01-07T05:22:39.479Z,11.60
2023-01-07T05:25:08.148Z,14.18
2023-01-07T05:27:35.716Z,10.93
2023-01-07T05:30:04.156Z,11.50
2023-01-07T05:32:31.959Z,14.32
2023-01-07T05:34:59.874Z,12.98
2023-01-07T05:37:29.026Z,12.80
2023-01-07T05:39:57.189Z,13.82
2023-01-07T05:42:24.867Z,12.88
2023-01-07T05:44:52.874Z,12.65
2023-01-07T05:47:20.402Z,12.23
2023-01-07T05:49:48.996Z,13.63
2023-01-07T05:52:16.521Z,13.93
2023-01-07T05:54:46.023Z,15.27
2023-01-07T05:57:13.681Z,14.68
2023-01-07T05:59:42.063Z,12.48
2023-01-07T06:02:09.707Z,12.95
2023-01-07T06:04:37.656Z,14.65
2023-01-07T06:07:05.208Z,10.93
2023-01-07T06:09:33.255Z,12.65
2023-01-07T06:12:02.267Z,17.25
2023-01-07T06:14:30.443Z,12.73
2023-01-07T06:16:58.156Z,10.00
2023-01-07T06:19:26.124Z,12.90
2023-01-07T06:21:53.994Z,12.30
2023-01-07T06:24:22.052Z,11.68
2023-01-07T06:26:49.819Z,13.05
2023-01-07T06:29:19.835Z,11.90
2023-01-07T06:31:47.556Z,13.02
2023-01-07T06:34:15.526Z,12.52
2023-01-07T06:36:43.133Z,13.18
2023-01-07T06:39:11.560Z,7.95
2023-01-07T06:41:39.231Z,15.00
2023-01-07T06:44:07.501Z,12.07
2023-01-07T06:46:36.753Z,12.45
2023-01-07T06:49:04.928Z,11.02
2023-01-07T06:51:32.569Z,11.05
2023-01-07T06:57:37.793Z,10.95
2023-01-07T07:00:06.889Z,9.90
2023-01-07T07:02:36.076Z,11.63
2023-01-07T07:05:04.584Z,9.90
2023-01-07T07:07:32.189Z,10.68
2023-01-07T07:10:00.228Z,10.90
2023-01-07T07:12:27.665Z,9.95
2023-01-07T07:14:55.839Z,10.35
2023-01-07T07:17:23.598Z,11.52
2023-01-07T07:19:53.228Z,12.77
2023-01-07T07:22:20.839Z,8.63
2023-01-07T07:24:48.711Z,11.02
2023-01-07T07:27:17.358Z,9.45
2023-01-07T07:29:51.276Z,10.57
2023-01-07T07:32:24.968Z,11.23
2023-01-07T07:34:54.865Z,12.80
2023-01-07T07:37:22.690Z,9.25
2023-01-07T07:39:50.712Z,11.25
2023-01-07T07:42:18.491Z,10.73
2023-01-07T07:44:46.548Z,12.15
2023-01-07T07:47:14.109Z,10.60
2023-01-07T07:49:42.172Z,9.52
2023-01-07T07:52:11.172Z,11.45
2023-01-07T07:54:39.561Z,11.13
2023-01-07T07:57:07.206Z,10.40
2023-01-07T07:59:35.392Z,11.95
2023-01-07T08:02:03.233Z,10.88
2023-01-07T08:04:31.253Z,10.73
2023-01-07T08:06:58.829Z,14.07
2023-01-07T08:09:28.233Z,14.73
2023-01-07T08:11:55.786Z,11.55
2023-01-07T08:14:23.664Z,10.73
2023-01-07T08:16:51.258Z,13.52
2023-01-07T08:19:19.271Z,10.93
2023-01-07T08:21:46.796Z,11.05
2023-01-07T08:24:15.513Z,9.15
2023-01-07T08:26:44.640Z,9.50
2023-01-07T08:29:12.524Z,9.63
2023-01-07T08:31:48.788Z,9.65
2023-01-07T08:34:17.179Z,10.15
2023-01-07T08:36:44.768Z,8.32
2023-01-07T08:39:13.242Z,8.85
2023-01-07T08:41:41.082Z,8.25
2023-01-07T08:44:10.471Z,10.55
2023-01-07T08:46:38.070Z,8.38
2023-01-07T08:49:06.136Z,8.10
2023-01-07T08:51:33.645Z,10.20
2023-01-07T08:54:01.716Z,11.00
2023-01-07T08:56:29.370Z,8.90
2023-01-07T08:58:57.421Z,9.90
2023-01-07T09:01:26.551Z,11.90
2023-01-07T09:03:54.487Z,11.57
2023-01-07T09:06:22.285Z,8.38
2023-01-07T09:08:50.522Z,10.60
2023-01-07T09:11:18.087Z,8.75
2023-01-07T09:13:45.984Z,8.43
2023-01-07T09:16:13.860Z,9.98
2023-01-07T09:18:43.275Z,8.55
2023-01-07T09:21:10.845Z,12.07
2023-01-07T09:23:39.041Z,10.95
2023-01-07T09:26:06.877Z,13.32
2023-01-07T09:28:35.024Z,11.73
2023-01-07T09:31:02.669Z,9.68
2023-01-07T09:33:30.664Z,11.77
2023-01-07T09:38:27.813Z,15.13
2023-01-07T09:40:55.906Z,13.55
2023-01-07T09:44:00.835Z,9.93
2023-01-07T09:46:18.349Z,10.27
2023-01-07T09:48:48.988Z,8.43
2023-01-07T09:51:23.965Z,10.93
2023-01-07T09:53:55.102Z,9.60
2023-01-07T09:56:27.016Z,11.52
2023-01-07T09:58:56.244Z,11.15
2023-01-07T10:01:31.369Z,11.98
2023-01-07T10:04:17.442Z,10.50
2023-01-07T10:06:55.063Z,14.45
2023-01-07T10:09:34.334Z,12.00
2023-01-07T10:12:09.804Z,9.23
2023-01-07T10:15:05.220Z,9.80
2023-01-07T10:17:47.319Z,10.88
2023-01-07T10:20:23.776Z,9.65
2023-01-07T10:23:00.954Z,12.32
2023-01-07T10:25:34.188Z,12.48
2023-01-07T10:28:06.630Z,9.52
2023-01-07T10:30:44.121Z,10.20
2023-01-07T10:33:20.084Z,10.80
2023-01-07T10:35:53.057Z,10.77
2023-01-07T10:40:54.415Z,8.10
2023-01-07T10:43:39.435Z,8.07
2023-01-07T10:46:26.326Z,8.48
2023-01-07T10:49:31.856Z,8.15
2023-01-07T10:52:24.954Z,6.93
2023-01-07T10:55:26.190Z,7.63
2023-01-07T10:57:54.158Z,7.90
2023-01-07T11:00:24.202Z,8.93
2023-01-07T11:02:56.655Z,9.55
2023-01-07T11:07:57.096Z,9.55
2023-01-07T11:10:31.250Z,9.18
2023-01-07T11:13:02.196Z,8.52
2023-01-07T11:15:33.528Z,5.50
2023-01-07T11:18:04.224Z,7.68
2023-01-07T11:20:47.212Z,8.65
2023-01-07T11:23:27.413Z,7.68
2023-01-07T11:26:08.250Z,7.55
2023-01-07T11:28:37.527Z,10.75
2023-01-07T11:31:05.683Z,9.32
2023-01-07T11:34:01.755Z,13.23
2023-01-07T11:36:40.270Z,11.50
2023-01-07T11:39:11.086Z,9.52
2023-01-07T11:41:52.707Z,6.82
2023-01-07T11:44:20.692Z,9.05
2023-01-07T11:46:48.512Z,7.03
2023-01-07T11:49:26.418Z,7.07
2023-01-07T11:51:54.593Z,8.27
2023-01-07T11:54:25.214Z,6.35
2023-01-07T11:57:12.123Z,7.18
2023-01-07T11:59:40.053Z,7.88
2023-01-07T12:02:24.423Z,8.13
2023-01-07T12:04:52.514Z,7.88
2023-01-07T12:07:20.303Z,9.50
2023-01-07T12:09:48.277Z,8.88
2023-01-07T12:12:22.627Z,8.98
2023-01-07T12:14:50.809Z,6.90
2023-01-07T12:17:22.672Z,8.18
2023-01-07T12:20:05.220Z,6.78
2023-01-07T12:22:44.461Z,6.40
2023-01-07T12:25:34.415Z,8.40
2023-01-07T12:28:11.069Z,6.63
2023-01-07T12:31:05.570Z,5.95
2023-01-07T12:33:46.422Z,6.40
2023-01-07T12:36:19.939Z,6.47
2023-01-07T12:38:49.812Z,5.10
2023-01-07T12:41:24.013Z,6.15
2023-01-07T12:43:58.997Z,6.38
2023-01-07T12:46:31.201Z,6.10
2023-01-07T12:49:04.270Z,6.07
2023-01-07T12:51:39.362Z,6.53
2023-01-07T12:54:16.256Z,6.30
2023-01-07T12:56:51.343Z,6.38
2023-01-07T12:59:46.569Z,5.70
2023-01-07T13:02:25.082Z,7.45
2023-01-07T13:05:00.633Z,6.90
2023-01-07T13:07:38.434Z,7.75
2023-01-07T13:10:15.489Z,5.43
2023-01-07T13:12:45.345Z,6.57
2023-01-07T13:15:20.050Z,6.25
2023-01-07T13:17:49.967Z,5.50
2023-01-07T13:20:30.537Z,6.45
2023-01-07T13:23:00.298Z,4.75
2023-01-07T13:25:45.718Z,5.75
2023-01-07T13:28:36.496Z,6.05
2023-01-07T13:31:23.269Z,7.00
2023-01-07T13:34:04.312Z,5.32
2023-01-07T13:36:40.017Z,6.20
2023-01-07T13:39:37.865Z,4.88
2023-01-07T13:42:33.683Z,4.63
2023-01-07T13:45:08.204Z,5.63
2023-01-07T13:47:50.263Z,6.53
2023-01-07T13:50:22.079Z,5.25
2023-01-07T13:53:01.678Z,5.15
2023-01-07T13:55:36.341Z,6.18
2023-01-07T13:58:51.269Z,4.22
2023-01-07T14:01:20.701Z,6.32
2023-01-07T14:03:51.286Z,5.18
2023-01-07T14:06:44.120Z,4.72
2023-01-07T14:09:17.485Z,5.25
2023-01-07T14:12:01.356Z,4.78
2023-01-07T14:14:37.449Z,5.10
2023-01-07T14:17:15.969Z,7.07
2023-01-07T14:19:52.677Z,5.95
2023-01-07T14:22:35.695Z,5.43
2023-01-07T14:25:22.759Z,6.13
2023-01-07T14:28:26.609Z,6.80
2023-01-07T14:30:55.195Z,7.70
2023-01-07T14:33:25.467Z,8.52
2023-01-07T14:35:57.302Z,10.05
2023-01-07T14:38:55.699Z,8.32
2023-01-07T14:41:23.422Z,8.45
2023-01-07T14:44:28.181Z,12.13
2023-01-07T14:46:55.987Z,12.70
2023-01-07T14:49:55.464Z,12.50
2023-01-07T14:52:54.457Z,13.30
2023-01-07T14:55:39.232Z,11.75
2023-01-07T14:58:32.667Z,11.68
2023-01-07T15:01:22.238Z,11.43
2023-01-07T15:03:57.266Z,12.10
2023-01-07T15:06:28.849Z,11.40
2023-01-07T15:09:05.092Z,8.65
2023-01-07T15:11:34.395Z,11.00
2023-01-07T15:14:07.407Z,12.20
2023-01-07T15:16:36.519Z,11.07
2023-01-07T15:19:04.238Z,7.45
2023-01-07T15:21:43.801Z,7.47
2023-01-07T15:24:28.109Z,7.80
2023-01-07T15:27:02.966Z,7.45
2023-01-07T15:29:43.607Z,7.68
2023-01-07T15:32:23.802Z,7.03
2023-01-07T15:34:51.670Z,7.97
2023-01-07T15:37:20.644Z,9.10
2023-01-07T15:39:59.809Z,7.20
2023-01-07T15:42:28.194Z,5.90
2023-01-07T15:44:58.681Z,8.07
2023-01-07T15:47:36.525Z,7.20
2023-01-07T15:50:26.092Z,8.95
2023-01-07T15:52:59.171Z,7.85
2023-01-07T15:55:33.272Z,6.50
2023-01-07T15:58:04.653Z,7.90
2023-01-07T16:00:32.835Z,9.27
2023-01-07T16:03:01.801Z,8.43
2023-01-07T16:05:29.996Z,10.43
2023-01-07T16:08:00.167Z,9.65
2023-01-07T16:10:32.669Z,11.13
2023-01-07T16:13:03.965Z,13.30
2023-01-07T16:15:33.385Z,12.23
2023-01-07T16:18:04.717Z,10.32
2023-01-07T16:20:35.835Z,11.05
2023-01-07T16:23:20.750Z,12.85
2023-01-07T16:25:53.876Z,10.40
2023-01-07T16:28:24.654Z,11.43
2023-01-07T16:30:52.815Z,10.27
2023-01-07T16:33:24.610Z,10.02
2023-01-07T16:35:56.362Z,10.60
2023-01-07T16:38:25.845Z,10.52
2023-01-07T16:40:55.591Z,14.68
2023-01-07T16:43:42.603Z,9.48
2023-01-07T16:46:24.900Z,9.70
2023-01-07T16:49:26.827Z,9.75
2023-01-07T16:52:04.041Z,10.65
2023-01-07T16:54:34.787Z,9.27
2023-01-07T16:57:06.064Z,10.43
2023-01-07T16:59:36.960Z,8.38
2023-01-07T17:02:13.092Z,10.27
2023-01-07T17:04:41.325Z,10.30
2023-01-07T17:07:19.871Z,9.27
2023-01-07T17:12:36.338Z,10.55
2023-01-07T17:15:28.732Z,12.45
2023-01-07T17:18:26.453Z,13.27
2023-01-07T17:20:56.936Z,10.50
2023-01-07T17:23:43.652Z,12.55
2023-01-07T17:26:22.743Z,11.48
2023-01-07T17:28:54.064Z,15.50
2023-01-07T17:31:23.304Z,14.43
2023-01-07T17:33:51.533Z,18.55
2023-01-07T17:36:21.482Z,22.38
2023-01-07T17:38:49.411Z,26.50
2023-01-07T17:41:19.667Z,26.30
2023-01-07T17:43:47.246Z,25.08
2023-01-07T17:46:17.215Z,25.10
2023-01-07T17:48:44.897Z,27.70
2023-01-07T17:51:13.123Z,25.00
2023-01-07T17:53:44.647Z,23.00
2023-01-07T17:56:12.815Z,24.48
2023-01-07T17:58:40.523Z,26.15
2023-01-07T18:01:11.660Z,30.63
2023-01-07T18:03:43.444Z,25.30
2023-01-07T18:06:16.090Z,27.67
2023-01-07T18:08:44.094Z,27.90
2023-01-07T18:11:15.667Z,22.17
2023-01-07T18:13:43.260Z,26.08
2023-01-07T18:16:13.635Z,28.15
2023-01-07T18:18:42.980Z,29.48
2023-01-07T18:21:13.828Z,28.45
2023-01-07T18:23:43.660Z,26.27
2023-01-07T18:26:12.509Z,26.60
2023-01-07T18:28:40.177Z,29.95
2023-01-07T18:31:08.931Z,25.77
2023-01-07T18:33:37.119Z,26.02
2023-01-07T18:36:07.981Z,28.15
2023-01-07T18:38:35.644Z,23.77
2023-01-07T18:41:04.014Z,21.75
2023-01-07T18:43:31.898Z,29.73
2023-01-07T18:46:00.851Z,29.27
2023-01-07T18:48:28.485Z,25.05
2023-01-07T18:50:56.956Z,25.30
2023-01-07T18:53:26.691Z,24.13
2023-01-07T18:55:59.541Z,26.05
2023-01-07T18:58:27.382Z,20.80
2023-01-07T19:00:55.821Z,22.58
2023-01-07T19:03:23.650Z,24.33
2023-01-07T19:05:51.850Z,23.38
2023-01-07T19:08:19.514Z,22.13
2023-01-07T19:10:49.100Z,20.83
2023-01-07T19:13:16.816Z,21.33
2023-01-07T19:15:44.891Z,19.75
2023-01-07T19:18:12.982Z,22.65
2023-01-07T19:20:41.451Z,19.33
2023-01-07T19:23:09.569Z,23.73
2023-01-07T19:25:38.284Z,23.42
2023-01-07T19:28:07.606Z,18.83
2023-01-07T19:30:36.000Z,22.33
2023-01-07T19:33:03.866Z,22.08
2023-01-07T19:35:32.280Z,25.15
2023-01-07T19:37:59.884Z,23.27
2023-01-07T19:40:28.008Z,26.67
2023-01-07T19:42:55.709Z,27.02
2023-01-07T19:45:25.354Z,23.42
2023-01-07T19:47:53.219Z,20.35
2023-01-07T19:50:22.120Z,19.60
2023-01-07T19:52:49.892Z,22.90
2023-01-07T19:55:17.910Z,20.17
2023-01-07T19:57:45.956Z,21.88
2023-01-07T20:00:14.517Z,25.05
2023-01-07T20:02:43.895Z,23.00
2023-01-07T20:05:12.041Z,22.63
2023-01-07T20:07:39.888Z,20.25
2023-01-07T20:10:08.845Z,18.77
2023-01-07T20:12:36.338Z,17.15
2023-01-07T20:15:04.946Z,21.48
2023-01-07T20:17:32.731Z,21.58
2023-01-07T20:20:02.286Z,20.27
2023-01-07T20:22:30.972Z,22.92
2023-01-07T20:24:59.534Z,56.03
2023-01-07T20:27:27.081Z,20.92
2023-01-07T20:29:55.566Z,18.30
2023-01-07T20:32:23.332Z,21.40
2023-01-07T20:34:52.054Z,19.73
2023-01-07T20:37:23.405Z,20.63
2023-01-07T20:39:51.950Z,17.15
2023-01-07T20:42:20.628Z,21.55
2023-01-07T20:44:50.178Z,18.85
2023-01-07T20:47:18.651Z,20.63
2023-01-07T20:52:31.677Z,19.33
2023-01-07T20:55:00.112Z,21.20
2023-01-07T20:57:27.932Z,21.88
2023-01-07T20:59:55.871Z,22.48
2023-01-07T21:02:23.755Z,22.23
2023-01-07T21:04:51.906Z,20.38
2023-01-07T21:07:20.135Z,21.88
2023-01-07T21:09:49.612Z,19.83
2023-01-07T21:12:17.634Z,21.75
2023-01-07T21:14:45.952Z,24.40
2023-01-07T21:17:13.613Z,22.33
2023-01-07T21:19:41.763Z,24.80
2023-01-07T21:22:09.571Z,21.40
2023-01-07T21:24:39.179Z,21.60
2023-01-07T21:27:08.452Z,22.48
2023-01-07T21:29:36.339Z,18.90
2023-01-07T21:32:04.139Z,23.15
2023-01-07T21:34:32.195Z,24.90
2023-01-07T21:37:02.887Z,18.58
2023-01-07T21:39:30.902Z,20.77
2023-01-07T21:41:58.510Z,20.60
2023-01-07T21:44:27.948Z,23.40
2023-01-07T21:46:55.539Z,21.48
2023-01-07T21:49:23.831Z,22.42
2023-01-07T21:51:51.501Z,18.85
2023-01-07T21:54:19.435Z,19.08
2023-01-07T21:56:47.256Z,22.17
2023-01-07T21:59:15.963Z,18.60
2023-01-07T22:01:45.472Z,19.77
2023-01-07T22:04:13.513Z,18.13
2023-01-07T22:06:42.137Z,20.48
2023-01-07T22:09:14.379Z,21.15
2023-01-07T22:11:42.947Z,16.38
2023-01-07T22:14:14.160Z,15.95
2023-01-07T22:16:42.254Z,17.75
2023-01-07T22:19:12.245Z,18.60
2023-01-07T22:21:39.878Z,15.18
2023-01-07T22:24:08.271Z,19.10
2023-01-07T22:26:35.825Z,17.73
2023-01-07T22:29:07.440Z,18.58
2023-01-07T22:31:37.242Z,19.25
2023-01-07T22:34:06.427Z,19.73
2023-01-07T22:36:41.523Z,21.65
2023-01-07T22:39:13.791Z,22.15
2023-01-07T22:41:41.790Z,24.45
2023-01-07T22:44:13.911Z,23.00
2023-01-07T22:46:44.551Z,24.90
2023-01-07T22:49:12.754Z,23.10
2023-01-07T22:51:45.611Z,23.38
2023-01-07T22:54:15.244Z,21.38
2023-01-07T22:56:44.265Z,23.80
2023-01-07T22:59:12.747Z,19.05
2023-01-07T23:01:40.498Z,23.33
2023-01-07T23:04:09.095Z,19.83
2023-01-07T23:06:36.773Z,23.27
2023-01-07T23:09:06.467Z,22.60
2023-01-07T23:11:34.314Z,23.75
2023-01-07T23:14:02.354Z,22.25
2023-01-07T23:16:29.798Z,19.05
2023-01-07T23:18:57.973Z,19.20
2023-01-07T23:21:25.710Z,20.38
2023-01-07T23:23:54.012Z,21.02
2023-01-07T23:26:23.259Z,20.17
2023-01-07T23:28:51.231Z,21.50
2023-01-07T23:31:18.927Z,22.88
2023-01-07T23:33:47.037Z,21.60
2023-01-07T23:36:14.592Z,15.57
2023-01-07T23:38:43.003Z,19.88
2023-01-07T23:41:12.067Z,19.30
2023-01-07T23:43:44.410Z,19.90
2023-01-07T23:46:12.358Z,21.38
2023-01-07T23:48:40.441Z,23.40
2023-01-07T23:51:11.984Z,18.80
2023-01-07T23:53:40.352Z,20.60
2023-01-07T23:56:08.826Z,21.58
2023-01-07T23:58:37.987Z,24.63
